Time;durP1;ratioP1;P1;durP2;ratioP2;P2;SDS_P1;SDS_P2;PMS_P1;PMS_P2;Temp;Humidity;BMP_temperature;BMP_pressure;BME280_temperature;BME280_humidity;BME280_pressure;Samples;Min_cycle;Max_cycle;Signal;HPM_P1;HPM_P2
2021/06/16 00:01:24;;;;;;;13.98;12.55;;;;;;;15.62;100.00;99113.37;1727994;81;20986;-67
2021/06/16 00:03:51;;;;;;;15.83;13.10;;;;;;;15.60;100.00;99113.41;1732628;79;21415;-66
2021/06/16 00:06:17;;;;;;;21.65;12.37;;;;;;;15.58;100.00;99114.25;1732908;81;20961;-67
2021/06/16 00:08:44;;;;;;;13.95;12.55;;;;;;;15.59;100.00;99117.23;1730904;80;22255;-66
2021/06/16 00:11:11;;;;;;;16.77;12.93;;;;;;;15.60;100.00;99114.20;1730580;80;21154;-67
2021/06/16 00:13:37;;;;;;;19.62;12.90;;;;;;;15.57;100.00;99110.75;1733740;80;21027;-67
2021/06/16 00:16:05;;;;;;;12.68;11.43;;;;;;;15.56;100.00;99105.66;1737688;80;21012;-66
2021/06/16 00:18:32;;;;;;;17.30;10.98;;;;;;;15.57;100.00;99111.31;1731774;80;22764;-67
2021/06/16 00:20:59;;;;;;;15.50;12.50;;;;;;;15.58;100.00;99115.08;1743538;80;21255;-66
2021/06/16 00:23:26;;;;;;;14.38;11.55;;;;;;;15.53;100.00;99116.53;1744952;80;21031;-66
2021/06/16 00:25:53;;;;;;;15.65;11.28;;;;;;;15.45;100.00;99113.12;1745288;80;21054;-66
2021/06/16 00:28:19;;;;;;;13.75;10.93;;;;;;;15.40;100.00;99109.16;1724272;80;21514;-67
2021/06/16 00:30:46;;;;;;;21.40;11.73;;;;;;;15.39;100.00;99115.13;1741480;80;20988;-67
2021/06/16 00:33:13;;;;;;;15.70;10.50;;;;;;;15.34;100.00;99109.01;1731959;80;21133;-66
2021/06/16 00:35:39;;;;;;;12.05;10.95;;;;;;;15.33;100.00;99107.39;1729846;80;20898;-66
2021/06/16 00:38:06;;;;;;;14.28;10.95;;;;;;;15.32;100.00;99107.14;1727579;81;21379;-66
2021/06/16 00:40:33;;;;;;;12.03;10.48;;;;;;;15.27;100.00;99109.37;1736650;80;20913;-66
2021/06/16 00:43:02;;;;;;;14.05;12.00;;;;;;;15.23;100.00;99114.56;1740319;80;21082;-66
2021/06/16 00:45:29;;;;;;;10.98;9.98;;;;;;;15.22;100.00;99117.02;1740640;80;21129;-67
2021/06/16 00:47:56;;;;;;;13.75;11.12;;;;;;;15.27;100.00;99122.90;1744675;80;20975;-66
2021/06/16 00:50:31;;;;;;;12.47;11.28;;;;;;;15.38;100.00;99124.87;1740387;80;21159;-66
2021/06/16 00:52:58;;;;;;;12.25;10.80;;;;;;;15.39;100.00;99121.09;1740056;80;20993;-66
2021/06/16 00:55:25;;;;;;;13.45;10.75;;;;;;;15.43;100.00;99124.78;1741064;80;20946;-66
2021/06/16 00:57:51;;;;;;;12.77;9.23;;;;;;;15.46;100.00;99131.50;1742840;80;21122;-65
2021/06/16 01:00:26;;;;;;;11.78;10.18;;;;;;;15.47;100.00;99129.07;1711446;81;21058;-66
2021/06/16 01:03:17;;;;;;;10.38;9.45;;;;;;;15.53;100.00;99128.70;1728250;79;21219;-66
2021/06/16 01:06:07;;;;;;;12.68;9.93;;;;;;;15.56;100.00;99128.09;1732455;81;21004;-66
2021/06/16 01:08:36;;;;;;;9.75;8.75;;;;;;;15.58;100.00;99124.55;1736391;81;21091;-64
2021/06/16 01:11:10;;;;;;;16.45;8.78;;;;;;;15.56;100.00;99127.30;1693528;83;21138;-66
2021/06/16 01:13:52;;;;;;;13.50;8.58;;;;;;;15.57;100.00;99120.78;1721731;80;21138;-66
2021/06/16 01:16:42;;;;;;;11.78;8.78;;;;;;;15.56;100.00;99121.34;1720562;80;20973;-68
2021/06/16 01:19:44;;;;;;;10.10;9.08;;;;;;;15.52;100.00;99122.22;1661510;84;21004;-67
2021/06/16 01:22:39;;;;;;;12.43;8.98;;;;;;;15.41;100.00;99116.98;1677020;83;21011;-68
2021/06/16 01:25:29;;;;;;;13.68;8.85;;;;;;;15.31;100.00;99112.28;1671674;84;22008;-67
2021/06/16 01:27:56;;;;;;;10.23;8.90;;;;;;;15.21;100.00;99109.19;1677454;83;20874;-68
2021/06/16 01:30:25;;;;;;;14.03;9.45;;;;;;;15.18;100.00;99113.84;1681601;83;21407;-68
2021/06/16 01:32:51;;;;;;;14.87;9.65;;;;;;;15.15;100.00;99113.89;1664439;84;21091;-67
2021/06/16 01:35:18;;;;;;;14.18;8.65;;;;;;;15.09;100.00;99111.02;1658802;83;21496;-68
2021/06/16 01:37:44;;;;;;;9.90;8.90;;;;;;;15.01;100.00;99115.17;1666613;83;21193;-67
2021/06/16 01:40:12;;;;;;;11.05;9.15;;;;;;;14.96;100.00;99114.45;1674944;83;21548;-67
2021/06/16 01:42:39;;;;;;;9.50;8.45;;;;;;;14.91;100.00;99113.98;1683106;83;20977;-67
2021/06/16 01:45:07;;;;;;;12.47;8.50;;;;;;;14.88;100.00;99119.97;1654436;84;20945;-67
2021/06/16 01:47:35;;;;;;;9.48;8.08;;;;;;;14.87;100.00;99110.80;1665930;83;21230;-68
2021/06/16 01:50:01;;;;;;;11.12;9.73;;;;;;;14.85;100.00;99126.52;1669293;84;21111;-67
2021/06/16 01:52:28;;;;;;;9.43;8.40;;;;;;;14.77;100.00;99124.73;1658558;83;21047;-67
2021/06/16 01:54:55;;;;;;;11.60;10.18;;;;;;;14.70;100.00;99126.16;1695780;81;21021;-68
2021/06/16 01:57:23;;;;;;;10.38;9.33;;;;;;;14.62;100.00;99122.22;1741006;80;21000;-68
2021/06/16 01:59:49;;;;;;;11.43;8.83;;;;;;;14.52;100.00;99126.38;1730584;81;20837;-67
2021/06/16 02:02:16;;;;;;;12.33;9.45;;;;;;;14.44;100.00;99129.18;1733912;80;21779;-67
2021/06/16 02:04:42;;;;;;;13.20;9.43;;;;;;;14.42;100.00;99134.61;1732567;80;20914;-67
2021/06/16 02:07:15;;;;;;;9.38;8.43;;;;;;;14.34;100.00;99137.41;1720340;80;21130;-67
2021/06/16 02:09:44;;;;;;;15.72;9.63;;;;;;;14.27;100.00;99140.45;1731267;80;21109;-67
2021/06/16 02:12:13;;;;;;;11.55;9.80;;;;;;;14.21;100.00;99139.44;1736791;79;21073;-66
2021/06/16 02:14:42;;;;;;;14.10;8.30;;;;;;;14.18;100.00;99140.02;1734991;80;21097;-68
2021/06/16 02:17:11;;;;;;;10.32;8.78;;;;;;;14.19;100.00;99137.59;1726479;81;20964;-68
2021/06/16 02:19:38;;;;;;;8.53;7.78;;;;;;;14.22;100.00;99136.46;1743679;79;21126;-68
2021/06/16 02:22:06;;;;;;;10.43;8.08;;;;;;;14.25;100.00;99146.67;1711427;82;21025;-67
2021/06/16 02:24:34;;;;;;;9.40;8.50;;;;;;;14.28;100.00;99144.77;1732842;80;20917;-68
2021/06/16 02:27:01;;;;;;;13.98;9.80;;;;;;;14.26;100.00;99145.61;1741152;80;21126;-68
2021/06/16 02:29:29;;;;;;;14.18;8.23;;;;;;;14.27;100.00;99147.20;1743051;80;21009;-67
2021/06/16 02:31:57;;;;;;;10.90;8.03;;;;;;;14.25;100.00;99145.88;1738689;80;20921;-68
2021/06/16 02:34:25;;;;;;;9.78;7.60;;;;;;;14.29;100.00;99148.27;1723832;80;21416;-68
2021/06/16 02:36:55;;;;;;;17.73;8.55;;;;;;;14.31;100.00;99150.14;1724272;80;21048;-68
2021/06/16 02:39:28;;;;;;;14.07;8.40;;;;;;;14.33;100.00;99148.77;1726825;81;21101;-68
2021/06/16 02:41:55;;;;;;;15.25;7.55;;;;;;;14.37;100.00;99155.17;1737441;79;21096;-68
2021/06/16 02:44:22;;;;;;;8.58;7.20;;;;;;;14.42;100.00;99158.36;1729361;80;21064;-68
2021/06/16 02:46:50;;;;;;;9.08;7.33;;;;;;;14.51;100.00;99159.34;1732216;80;21044;-68
2021/06/16 02:49:16;;;;;;;7.80;6.90;;;;;;;14.58;100.00;99157.67;1738832;80;23227;-67
2021/06/16 02:51:44;;;;;;;8.05;6.12;;;;;;;14.68;100.00;99155.39;1706840;82;21759;-68
2021/06/16 02:54:16;;;;;;;13.70;7.53;;;;;;;14.76;100.00;99154.17;1725575;82;20949;-68
2021/06/16 02:56:44;;;;;;;8.35;6.42;;;;;;;14.85;100.00;99153.55;1720799;81;21503;-68
2021/06/16 02:59:12;;;;;;;9.67;6.43;;;;;;;14.89;100.00;99153.19;1730519;81;21069;-67
2021/06/16 03:01:40;;;;;;;9.98;6.20;;;;;;;14.95;100.00;99150.14;1738601;80;21470;-67
2021/06/16 03:04:07;;;;;;;7.25;5.87;;;;;;;15.02;100.00;99155.19;1719742;80;21046;-68
2021/06/16 03:06:33;;;;;;;7.25;5.50;;;;;;;15.10;100.00;99149.11;1729029;80;20889;-68
2021/06/16 03:09:01;;;;;;;7.05;6.05;;;;;;;15.18;100.00;99153.84;1735531;80;20905;-67
2021/06/16 03:11:30;;;;;;;9.43;5.90;;;;;;;15.29;100.00;99157.77;1699923;82;21111;-67
2021/06/16 03:13:57;;;;;;;6.25;5.70;;;;;;;15.36;100.00;99154.11;1722544;81;26667;-67
2021/06/16 03:16:23;;;;;;;5.33;4.83;;;;;;;15.45;100.00;99156.41;1722252;80;21083;-67
2021/06/16 03:18:50;;;;;;;9.50;5.20;;;;;;;15.52;100.00;99154.67;1737224;80;21450;-66
2021/06/16 03:21:16;;;;;;;7.70;5.00;;;;;;;15.60;100.00;99162.91;1737242;80;21008;-67
2021/06/16 03:23:44;;;;;;;6.83;4.90;;;;;;;15.73;100.00;99162.73;1730202;80;21050;-67
2021/06/16 03:26:11;;;;;;;5.70;5.20;;;;;;;15.84;100.00;99168.20;1671968;82;20944;-67
2021/06/16 03:28:38;;;;;;;7.05;4.90;;;;;;;15.92;100.00;99177.54;1681178;83;21090;-67
2021/06/16 03:31:05;;;;;;;9.00;5.77;;;;;;;16.08;100.00;99168.61;1692311;82;21226;-67
2021/06/16 03:33:32;;;;;;;9.35;4.67;;;;;;;16.08;100.00;99168.61;1733930;81;20873;-67
2021/06/16 03:35:58;;;;;;;7.08;4.67;;;;;;;16.18;100.00;99173.02;1739534;80;21510;-67
2021/06/16 03:38:25;;;;;;;5.37;4.65;;;;;;;16.25;100.00;99180.20;1718459;81;20929;-67
2021/06/16 03:40:53;;;;;;;6.28;5.28;;;;;;;16.29;100.00;99179.83;1735053;81;21142;-67
2021/06/16 03:43:21;;;;;;;7.33;5.53;;;;;;;16.36;100.00;99178.09;1722405;81;20940;-67
2021/06/16 03:45:48;;;;;;;7.22;5.20;;;;;;;16.43;100.00;99183.34;1724187;81;21033;-66
2021/06/16 03:48:20;;;;;;;5.65;5.08;;;;;;;16.45;100.00;99181.15;1734950;80;20917;-66
2021/06/16 03:50:46;;;;;;;8.83;4.58;;;;;;;16.53;100.00;99182.91;1741050;80;21110;-67
2021/06/16 03:53:14;;;;;;;7.75;4.55;;;;;;;16.63;100.00;99178.06;1742121;80;21502;-67
2021/06/16 03:55:45;;;;;;;4.92;4.33;;;;;;;16.72;100.00;99183.03;1714027;81;20966;-67
2021/06/16 03:58:12;;;;;;;7.58;4.40;;;;;;;16.83;100.00;99185.55;1725621;80;21030;-67
2021/06/16 04:00:40;;;;;;;7.58;4.33;;;;;;;16.95;100.00;99180.41;1732009;80;20932;-67
2021/06/16 04:03:09;;;;;;;11.28;4.22;;;;;;;17.02;100.00;99177.28;1722807;81;21131;-66
2021/06/16 04:05:36;;;;;;;9.23;4.60;;;;;;;17.05;100.00;99180.73;1717385;79;21766;-67
2021/06/16 04:08:04;;;;;;;8.95;4.20;;;;;;;17.16;100.00;99183.47;1721916;80;20976;-67
2021/06/16 04:10:32;;;;;;;6.87;3.95;;;;;;;17.30;100.00;99186.15;1730290;80;21004;-66
2021/06/16 04:12:59;;;;;;;4.08;3.67;;;;;;;17.40;100.00;99188.61;1696516;81;20910;-68
2021/06/16 04:15:27;;;;;;;8.43;4.60;;;;;;;17.55;100.00;99189.59;1663742;83;20914;-67
2021/06/16 04:17:54;;;;;;;6.58;4.55;;;;;;;17.62;100.00;99194.59;1682392;83;21356;-67
2021/06/16 04:20:21;;;;;;;4.12;3.70;;;;;;;17.64;100.00;99195.09;1711097;82;21116;-68
2021/06/16 04:22:50;;;;;;;10.43;4.62;;;;;;;17.82;100.00;99197.38;1649665;85;21162;-68
2021/06/16 04:25:16;;;;;;;7.40;4.53;;;;;;;17.85;100.00;99200.83;1629214;86;21482;-67
2021/06/16 04:27:43;;;;;;;6.37;4.10;;;;;;;17.96;100.00;99202.75;1639278;84;21018;-67
2021/06/16 04:30:12;;;;;;;10.45;4.50;;;;;;;18.02;100.00;99196.05;1648604;85;21091;-67
2021/06/16 04:32:39;;;;;;;8.58;4.37;;;;;;;18.18;100.00;99199.98;1644354;85;21073;-67
2021/06/16 04:35:07;;;;;;;5.12;4.40;;;;;;;18.32;100.00;99208.57;1635845;85;21593;-68
2021/06/16 04:37:35;;;;;;;5.25;4.20;;;;;;;18.45;100.00;99216.36;1632171;84;21104;-68
2021/06/16 04:40:03;;;;;;;6.85;4.65;;;;;;;18.52;100.00;99210.74;1630636;84;21522;-68
2021/06/16 04:42:35;;;;;;;9.30;3.80;;;;;;;18.72;100.00;99214.00;1621038;84;21931;-68
2021/06/16 04:45:01;;;;;;;5.25;4.35;;;;;;;18.91;100.00;99211.02;1605198;86;21409;-68
2021/06/16 04:47:28;;;;;;;8.00;3.98;;;;;;;19.14;100.00;99213.86;1658858;84;21073;-68
2021/06/16 04:49:54;;;;;;;6.47;4.03;;;;;;;19.14;100.00;99213.86;1625954;85;23557;-66
2021/06/16 04:52:21;;;;;;;11.10;4.22;;;;;;;19.25;100.00;99221.13;1604541;87;21102;-67
2021/06/16 04:54:48;;;;;;;3.70;3.35;;;;;;;19.36;100.00;99220.27;1695461;82;21137;-68
2021/06/16 04:57:14;;;;;;;8.33;3.75;;;;;;;19.50;100.00;99222.28;1742676;81;21036;-68
2021/06/16 04:59:41;;;;;;;4.70;3.90;;;;;;;19.55;100.00;99228.09;1741368;80;21364;-68
2021/06/16 05:02:07;;;;;;;7.37;4.75;;;;;;;19.65;100.00;99225.86;1744664;80;21866;-68
2021/06/16 05:04:34;;;;;;;7.83;3.95;;;;;;;19.83;100.00;99228.59;1714790;81;21059;-68
2021/06/16 05:07:00;;;;;;;9.35;3.72;;;;;;;19.84;100.00;99227.45;1734149;80;21104;-68
2021/06/16 05:09:27;;;;;;;6.65;4.28;;;;;;;19.72;100.00;99229.50;1740241;80;20837;-67
2021/06/16 05:11:54;;;;;;;7.97;4.90;;;;;;;19.73;100.00;99233.02;1739384;80;21161;-68
2021/06/16 05:14:21;;;;;;;6.80;4.53;;;;;;;19.71;100.00;99233.33;1731539;80;21473;-69
2021/06/16 05:16:48;;;;;;;4.42;3.52;;;;;;;19.76;100.00;99229.64;1731510;80;21501;-68
2021/06/16 05:19:20;;;;;;;8.75;4.30;;;;;;;19.90;100.00;99232.41;1731699;80;21847;-67
2021/06/16 05:21:46;;;;;;;5.83;3.92;;;;;;;19.86;100.00;99232.81;1734996;80;21016;-68
2021/06/16 05:24:13;;;;;;;6.10;4.42;;;;;;;19.77;100.00;99232.05;1725095;81;21481;-69
2021/06/16 05:26:40;;;;;;;5.92;4.47;;;;;;;19.99;100.00;99243.30;1723279;80;21479;-69
2021/06/16 05:29:07;;;;;;;5.97;4.58;;;;;;;20.32;100.00;99239.43;1727828;80;20977;-68
2021/06/16 05:31:35;;;;;;;7.78;4.42;;;;;;;20.69;100.00;99248.53;1728753;81;21742;-68
2021/06/16 05:34:01;;;;;;;12.73;4.53;;;;;;;20.75;100.00;99250.75;1721254;80;20913;-68
2021/06/16 05:36:29;;;;;;;7.03;4.30;;;;;;;20.77;100.00;99255.86;1706595;81;21951;-67
2021/06/16 05:38:55;;;;;;;8.63;4.37;;;;;;;20.76;100.00;99253.70;1693913;81;21093;-68
2021/06/16 05:41:22;;;;;;;6.75;4.72;;;;;;;20.72;100.00;99254.11;1729680;80;21071;-69
2021/06/16 05:43:48;;;;;;;9.45;4.47;;;;;;;20.69;100.00;99257.50;1739915;80;21144;-68
2021/06/16 05:46:15;;;;;;;8.40;4.85;;;;;;;20.85;100.00;99259.67;1732091;81;21466;-68
2021/06/16 05:48:42;;;;;;;14.80;4.95;;;;;;;21.12;100.00;99253.75;1720961;80;22032;-68
2021/06/16 05:51:08;;;;;;;8.45;4.83;;;;;;;21.34;100.00;99259.45;1730762;81;21115;-68
2021/06/16 05:53:35;;;;;;;11.08;4.90;;;;;;;21.57;100.00;99267.33;1726059;81;20995;-69
2021/06/16 05:56:01;;;;;;;7.12;4.70;;;;;;;21.94;100.00;99257.92;1726409;81;21104;-68
2021/06/16 05:58:28;;;;;;;7.40;3.75;;;;;;;21.96;100.00;99260.55;1731709;81;20926;-68
2021/06/16 06:00:55;;;;;;;6.97;3.95;;;;;;;21.82;100.00;99269.59;1731065;81;21344;-69
2021/06/16 06:03:21;;;;;;;8.05;4.50;;;;;;;21.78;100.00;99272.79;1729495;80;21405;-69
2021/06/16 06:05:48;;;;;;;6.97;4.12;;;;;;;21.99;100.00;99276.83;1731548;80;20893;-68
2021/06/16 06:08:14;;;;;;;5.50;3.47;;;;;;;22.07;100.00;99273.78;1727329;80;21144;-69
2021/06/16 06:10:42;;;;;;;4.62;3.52;;;;;;;22.31;100.00;99267.61;1726372;81;21067;-69
2021/06/16 06:13:09;;;;;;;5.75;3.70;;;;;;;22.44;100.00;99275.50;1728135;80;21506;-68
2021/06/16 06:15:36;;;;;;;5.33;4.00;;;;;;;22.46;100.00;99281.44;1739578;80;21043;-68
2021/06/16 06:18:03;;;;;;;4.87;3.83;;;;;;;22.53;100.00;99283.59;1737239;81;20990;-67
2021/06/16 06:20:30;;;;;;;5.55;3.58;;;;;;;22.66;100.00;99283.03;1727125;80;21085;-69
2021/06/16 06:23:05;;;;;;;6.58;3.37;;;;;;;22.90;100.00;99283.61;1721946;79;21094;-68
2021/06/16 06:25:32;;;;;;;5.75;3.42;;;;;;;22.77;100.00;99280.08;1729961;80;21506;-69
2021/06/16 06:27:59;;;;;;;11.65;3.80;;;;;;;22.60;99.65;99280.30;1728679;80;21389;-69
2021/06/16 06:30:26;;;;;;;4.15;3.27;;;;;;;22.65;100.00;99286.34;1740754;80;20934;-69
2021/06/16 06:32:53;;;;;;;6.33;3.30;;;;;;;23.09;98.42;99294.02;1727327;80;21135;-69
2021/06/16 06:35:19;;;;;;;8.35;3.58;;;;;;;23.21;100.00;99290.47;1737899;80;20937;-68
2021/06/16 06:37:46;;;;;;;5.90;4.00;;;;;;;23.07;96.06;99290.81;1720092;81;21047;-69
2021/06/16 06:40:14;;;;;;;5.40;3.50;;;;;;;23.09;98.83;99292.64;1720157;80;21332;-69
2021/06/16 06:42:40;;;;;;;6.45;3.37;;;;;;;23.14;95.99;99294.35;1734925;80;21031;-69
2021/06/16 06:45:08;;;;;;;6.90;3.30;;;;;;;22.92;97.64;99290.12;1732750;79;21177;-68
2021/06/16 06:47:38;;;;;;;;;;;;;;;23.04;96.95;99292.30;1743319;80;20935;-68
2021/06/16 06:50:14;;;;;;;5.42;3.75;;;;;;;23.04;98.49;99297.77;1728845;80;20087;-69
2021/06/16 06:52:43;;;;;;;8.30;4.50;;;;;;;22.98;99.55;99299.70;1732824;80;21401;-69
2021/06/16 06:55:12;;;;;;;9.73;4.65;;;;;;;22.77;100.00;99301.17;1738601;80;20951;-69
2021/06/16 06:57:38;;;;;;;6.67;4.30;;;;;;;22.69;100.00;99305.05;1744660;80;21089;-69
2021/06/16 07:00:06;;;;;;;8.13;3.85;;;;;;;22.69;100.00;99311.09;1694381;82;20945;-68
2021/06/16 07:02:33;;;;;;;7.78;4.25;;;;;;;22.73;100.00;99309.83;1732289;80;20905;-69
2021/06/16 07:05:00;;;;;;;6.42;3.58;;;;;;;22.72;100.00;99309.03;1741211;80;21423;-69
2021/06/16 07:07:26;;;;;;;5.95;3.60;;;;;;;23.08;99.81;99312.38;1748239;80;20993;-69
2021/06/16 07:09:53;;;;;;;13.72;4.62;;;;;;;23.11;96.14;99310.31;1739394;80;21867;-68
2021/06/16 07:12:20;;;;;;;5.15;3.42;;;;;;;22.68;98.32;99314.95;1711802;81;20981;-69
2021/06/16 07:14:46;;;;;;;6.70;3.60;;;;;;;22.44;97.15;99313.78;1747927;80;20900;-68
2021/06/16 07:17:13;;;;;;;10.10;3.30;;;;;;;22.35;99.80;99315.02;1734040;80;21028;-69
2021/06/16 07:19:39;;;;;;;4.47;3.15;;;;;;;22.17;98.55;99316.53;1728745;80;21526;-69
2021/06/16 07:22:06;;;;;;;4.97;3.20;;;;;;;21.97;99.86;99311.89;1688527;81;21113;-69
2021/06/16 07:24:33;;;;;;;8.28;3.87;;;;;;;22.24;100.00;99316.00;1740300;79;20897;-69
2021/06/16 07:26:59;;;;;;;6.87;3.52;;;;;;;22.89;97.82;99323.86;1737008;80;21078;-69
2021/06/16 07:29:26;;;;;;;3.55;3.00;;;;;;;23.18;98.22;99319.33;1743040;79;20992;-69
2021/06/16 07:31:52;;;;;;;8.40;3.30;;;;;;;23.58;96.94;99319.94;1736237;79;21147;-69
2021/06/16 07:34:19;;;;;;;7.33;3.62;;;;;;;23.84;99.62;99321.51;1744665;80;21129;-69
2021/06/16 07:36:45;;;;;;;9.85;3.25;;;;;;;24.20;92.85;99326.02;1743398;80;21553;-68
2021/06/16 07:39:12;;;;;;;5.08;2.87;;;;;;;24.35;91.53;99324.45;1737055;80;21030;-67
2021/06/16 07:41:40;;;;;;;3.67;2.90;;;;;;;24.37;87.97;99330.38;1745005;80;20979;-68
2021/06/16 07:44:06;;;;;;;8.23;2.70;;;;;;;24.42;85.35;99335.61;1740122;80;21558;-69
2021/06/16 07:46:33;;;;;;;4.35;2.80;;;;;;;24.26;77.34;99336.17;1701300;81;23299;-69
2021/06/16 07:49:00;;;;;;;10.48;2.65;;;;;;;24.16;83.47;99335.52;1733267;79;20981;-70
2021/06/16 07:51:27;;;;;;;7.22;2.47;;;;;;;24.48;81.52;99337.57;1747504;79;20882;-70
2021/06/16 07:53:54;;;;;;;6.12;2.65;;;;;;;24.32;79.08;99337.50;1735961;79;21536;-71
2021/06/16 07:56:22;;;;;;;5.73;3.00;;;;;;;24.34;84.68;99333.84;1734269;81;21426;-69
2021/06/16 07:58:49;;;;;;;3.17;2.37;;;;;;;24.93;81.44;99333.59;1726348;81;21227;-67
2021/06/16 08:01:17;;;;;;;6.60;2.52;;;;;;;24.86;77.16;99335.58;1725466;81;20933;-67
2021/06/16 08:03:44;;;;;;;4.35;2.70;;;;;;;24.70;76.47;99338.34;1720600;80;21031;-66
2021/06/16 08:06:10;;;;;;;5.87;2.67;;;;;;;24.80;75.96;99330.16;1726616;81;21467;-67
2021/06/16 08:08:37;;;;;;;5.15;2.83;;;;;;;24.54;79.13;99335.56;1728821;81;21494;-66
2021/06/16 08:11:04;;;;;;;5.25;2.45;;;;;;;24.52;77.53;99332.95;1731355;81;21030;-67
2021/06/16 08:13:32;;;;;;;3.22;2.20;;;;;;;24.46;74.14;99326.94;1745146;80;20930;-67
2021/06/16 08:15:59;;;;;;;7.35;2.52;;;;;;;24.81;74.87;99335.84;1744191;80;20899;-68
2021/06/16 08:18:25;;;;;;;2.55;1.95;;;;;;;25.21;74.68;99328.02;1744325;80;20902;-67
2021/06/16 08:20:52;;;;;;;4.35;2.33;;;;;;;25.18;68.95;99335.58;1743704;80;20963;-68
2021/06/16 08:23:18;;;;;;;3.92;1.98;;;;;;;25.16;70.54;99333.73;1741740;80;21716;-67
2021/06/16 08:25:45;;;;;;;3.70;2.30;;;;;;;25.33;67.97;99336.70;1717688;82;20919;-67
2021/06/16 08:28:11;;;;;;;3.22;1.95;;;;;;;25.47;70.10;99322.50;1732931;81;20911;-68
2021/06/16 08:30:38;;;;;;;3.15;1.92;;;;;;;25.48;65.81;99333.70;1745157;80;20874;-68
2021/06/16 08:33:05;;;;;;;4.65;2.30;;;;;;;25.74;66.57;99338.00;1747977;79;21369;-67
2021/06/16 08:35:31;;;;;;;8.55;3.58;;;;;;;25.70;63.27;99333.58;1720142;81;21871;-68
2021/06/16 08:37:58;;;;;;;14.35;8.93;;;;;;;25.64;63.85;99333.86;1734168;80;21087;-67
2021/06/16 08:40:24;;;;;;;5.08;2.30;;;;;;;25.93;63.58;99332.33;1735320;80;20966;-68
2021/06/16 08:42:51;;;;;;;7.70;3.08;;;;;;;25.86;59.70;99342.01;1742943;80;21507;-69
2021/06/16 08:45:19;;;;;;;3.25;1.65;;;;;;;25.86;64.42;99340.63;1742948;81;21009;-68
2021/06/16 08:47:49;;;;;;;5.20;2.33;;;;;;;26.18;58.06;99332.81;1742342;81;21116;-68
2021/06/16 08:50:16;;;;;;;2.47;2.05;;;;;;;25.87;57.92;99335.38;1737090;81;20903;-68
2021/06/16 08:52:43;;;;;;;7.00;2.42;;;;;;;25.51;58.86;99347.53;1723391;80;20875;-68
2021/06/16 08:55:13;;;;;;;8.10;1.90;;;;;;;25.51;61.60;99348.11;1747414;80;21015;-68
2021/06/16 08:57:40;;;;;;;5.30;2.08;;;;;;;25.32;59.44;99352.98;1751267;80;21152;-68
2021/06/16 09:00:09;;;;;;;5.65;2.27;;;;;;;25.19;60.95;99363.28;1750307;80;21727;-69
2021/06/16 09:02:35;;;;;;;6.47;2.30;;;;;;;25.03;59.54;99357.17;1746276;81;21002;-69
2021/06/16 09:05:02;;;;;;;9.03;2.40;;;;;;;25.31;65.57;99360.42;1746338;81;20898;-68
2021/06/16 09:07:32;;;;;;;3.22;2.47;;;;;;;25.18;65.79;99363.83;1748464;80;21009;-68
2021/06/16 09:10:20;;;;;;;6.62;2.30;;;;;;;25.12;65.77;99363.87;1747929;81;20990;-68
2021/06/16 09:12:58;;;;;;;6.03;2.25;;;;;;;25.07;66.44;99356.48;1747179;80;21223;-67
2021/06/16 09:15:27;;;;;;;6.08;1.90;;;;;;;25.00;66.96;99361.22;1752017;81;21131;-69
2021/06/16 09:18:12;;;;;;;5.17;1.92;;;;;;;25.51;67.51;99364.59;1746651;80;21424;-69
2021/06/16 09:20:47;;;;;;;3.08;1.92;;;;;;;26.30;63.54;99365.08;1741910;80;21013;-70
2021/06/16 09:23:21;;;;;;;3.65;2.10;;;;;;;26.75;60.64;99371.02;1746549;80;21313;-68
2021/06/16 09:26:11;;;;;;;5.42;2.22;;;;;;;27.10;58.96;99352.14;1740352;81;21117;-69
2021/06/16 09:28:45;;;;;;;2.95;1.70;;;;;;;26.85;55.35;99368.23;1738912;80;20994;-67
2021/06/16 09:31:15;;;;;;;5.00;2.12;;;;;;;26.36;55.38;99358.72;1739723;81;20906;-70
2021/06/16 09:33:42;;;;;;;2.98;1.75;;;;;;;26.47;58.81;99362.45;1739535;81;20982;-69
2021/06/16 09:36:15;;;;;;;4.33;2.00;;;;;;;26.71;54.22;99355.05;1732738;81;20844;-69
2021/06/16 09:38:47;;;;;;;6.17;1.95;;;;;;;26.43;55.41;99360.78;1733755;81;21117;-69
2021/06/16 09:41:16;;;;;;;3.17;1.85;;;;;;;26.62;54.50;99357.23;1718199;81;21168;-68
2021/06/16 09:43:43;;;;;;;3.55;2.62;;;;;;;26.82;54.55;99357.97;1721382;81;21034;-68
2021/06/16 09:46:11;;;;;;;2.77;1.93;;;;;;;26.87;52.39;99356.28;1740812;80;20910;-68
2021/06/16 09:48:43;;;;;;;5.92;3.00;;;;;;;26.63;50.83;99350.00;1742543;81;21447;-69
2021/06/16 09:51:23;;;;;;;4.42;1.80;;;;;;;26.45;53.12;99356.50;1745672;80;21152;-67
2021/06/16 09:54:12;;;;;;;34.60;6.12;;;;;;;26.69;53.33;99366.41;1741383;80;20931;-68
2021/06/16 09:56:47;;;;;;;9.38;2.15;;;;;;;26.76;53.39;99358.08;1742354;80;21019;-68
2021/06/16 09:59:14;;;;;;;5.90;2.08;;;;;;;26.97;54.79;99351.52;1737820;80;20930;-68
2021/06/16 10:01:51;;;;;;;4.55;2.00;;;;;;;27.31;53.76;99358.57;1699636;82;20974;-69
2021/06/16 10:04:45;;;;;;;3.25;1.67;;;;;;;27.50;52.24;99361.22;1739629;82;27177;-67
2021/06/16 10:07:18;;;;;;;3.40;1.87;;;;;;;27.47;50.06;99349.56;1745259;81;20911;-65
2021/06/16 10:10:07;;;;;;;3.17;2.00;;;;;;;26.93;51.90;99358.95;1685542;83;21068;-62
2021/06/16 10:12:44;;;;;;;5.17;2.10;;;;;;;26.99;52.20;99339.56;1741936;81;21038;-66
2021/06/16 10:15:14;;;;;;;4.22;1.98;;;;;;;27.04;51.70;99346.72;1735472;81;21136;-66
2021/06/16 10:17:44;;;;;;;7.17;2.17;;;;;;;26.96;52.95;99352.70;1735569;81;20942;-68
2021/06/16 10:20:13;;;;;;;5.92;2.15;;;;;;;26.96;49.78;99343.06;1747314;80;20935;-65
2021/06/16 10:22:40;;;;;;;2.62;1.50;;;;;;;26.98;52.29;99342.11;1747107;80;21496;-66
2021/06/16 10:25:08;;;;;;;3.87;2.12;;;;;;;27.17;50.71;99348.13;1749083;81;20879;-67
2021/06/16 10:27:58;;;;;;;15.95;2.92;;;;;;;27.31;53.27;99353.06;1743256;81;21049;-70
2021/06/16 10:30:26;;;;;;;2.92;1.90;;;;;;;27.67;51.95;99354.95;1740643;81;21121;-66
2021/06/16 10:32:53;;;;;;;3.58;2.20;;;;;;;27.52;48.85;99347.86;1740570;80;21065;-67
2021/06/16 10:35:36;;;;;;;6.92;2.50;;;;;;;27.60;51.33;99350.72;1738092;81;20982;-67
2021/06/16 10:38:19;;;;;;;2.37;1.67;;;;;;;27.85;48.96;99351.06;1745257;80;20864;-66
2021/06/16 10:40:53;;;;;;;6.37;2.27;;;;;;;27.71;50.58;99350.29;1747202;81;20974;-69
2021/06/16 10:43:24;;;;;;;3.25;1.90;;;;;;;27.88;51.83;99341.47;1744046;80;21128;-67
2021/06/16 10:46:03;;;;;;;7.33;2.10;;;;;;;28.02;48.45;99344.97;1736775;80;20926;-67
2021/06/16 10:48:46;;;;;;;3.30;1.57;;;;;;;28.16;47.78;99340.21;1738413;81;20992;-67
2021/06/16 10:51:26;;;;;;;4.75;1.72;;;;;;;28.23;47.29;99338.91;1730815;80;21063;-68
2021/06/16 10:54:24;;;;;;;5.72;1.70;;;;;;;28.12;49.03;99338.77;1728026;81;21083;-67
2021/06/16 10:56:59;;;;;;;3.17;2.00;;;;;;;27.97;47.73;99347.47;1717555;81;21123;-67
2021/06/16 10:59:53;;;;;;;5.72;1.85;;;;;;;27.55;47.67;99338.84;1739816;80;21470;-67
2021/06/16 11:02:34;;;;;;;2.90;1.70;;;;;;;27.41;47.12;99338.64;1729188;81;21469;-67
2021/06/16 11:05:26;;;;;;;2.77;1.65;;;;;;;27.48;47.53;99329.69;1737317;81;20997;-67
2021/06/16 11:07:53;;;;;;;3.12;1.70;;;;;;;27.23;48.01;99327.95;1684631;83;20973;-68
2021/06/16 11:10:21;;;;;;;3.72;1.70;;;;;;;27.21;48.42;99320.64;1747520;80;21188;-67
2021/06/16 11:12:53;;;;;;;4.65;1.70;;;;;;;27.49;48.76;99323.02;1744092;80;20964;-68
2021/06/16 11:15:30;;;;;;;5.92;2.45;;;;;;;27.43;46.54;99321.74;1744449;79;20963;-67
2021/06/16 11:17:59;;;;;;;5.30;2.02;;;;;;;27.30;48.72;99323.93;1739093;81;20932;-67
2021/06/16 11:20:38;;;;;;;9.50;2.75;;;;;;;27.31;47.97;99321.38;1732506;81;21154;-67
2021/06/16 11:23:06;;;;;;;5.80;2.30;;;;;;;27.54;47.96;99324.07;1731456;80;21111;-68
2021/06/16 11:25:40;;;;;;;17.87;3.52;;;;;;;27.70;48.06;99322.49;1744719;80;20909;-68
2021/06/16 11:28:19;;;;;;;7.47;2.60;;;;;;;28.07;48.38;99325.32;1741759;81;21438;-67
2021/06/16 11:30:57;;;;;;;4.12;3.08;;;;;;;28.36;45.94;99323.66;1743961;80;20874;-67
2021/06/16 11:33:37;;;;;;;4.47;2.55;;;;;;;28.03;43.14;99328.64;1737748;81;21020;-66
2021/06/16 11:36:27;;;;;;;4.15;2.77;;;;;;;28.23;44.92;99331.22;1734482;80;21172;-66
2021/06/16 11:39:04;;;;;;;6.47;3.37;;;;;;;28.12;46.14;99332.47;1720145;82;20955;-67